sensor_id;sensor_type;location;lat;lon;timestamp;P1;durP1;ratioP1;P2;durP2;ratioP2
11620;SDS011;5866;49.094;11.900;2023-02-15T00:02:02;167.70;;;16.63;;
11620;SDS011;5866;49.094;11.900;2023-02-15T00:04:29;218.27;;;20.23;;
11620;SDS011;5866;49.094;11.900;2023-02-15T00:07:12;149.47;;;18.50;;
11620;SDS011;5866;49.094;11.900;2023-02-15T00:09:41;187.93;;;21.07;;
11620;SDS011;5866;49.094;11.900;2023-02-15T00:12:09;193.40;;;18.53;;
11620;SDS011;5866;49.094;11.900;2023-02-15T00:14:38;138.03;;;19.77;;
11620;SDS011;5866;49.094;11.900;2023-02-15T00:17:05;162.73;;;19.07;;
11620;SDS011;5866;49.094;11.900;2023-02-15T00:19:33;167.73;;;18.10;;
11620;SDS011;5866;49.094;11.900;2023-02-15T00:22:00;148.37;;;16.47;;
11620;SDS011;5866;49.094;11.900;2023-02-15T00:24:28;167.50;;;16.37;;
11620;SDS011;5866;49.094;11.900;2023-02-15T00:26:56;176.67;;;17.20;;
11620;SDS011;5866;49.094;11.900;2023-02-15T00:29:23;246.43;;;23.77;;
11620;SDS011;5866;49.094;11.900;2023-02-15T00:31:52;133.03;;;17.43;;
11620;SDS011;5866;49.094;11.900;2023-02-15T00:34:21;143.80;;;16.40;;
11620;SDS011;5866;49.094;11.900;2023-02-15T00:36:50;187.37;;;19.27;;
11620;SDS011;5866;49.094;11.900;2023-02-15T00:39:18;280.83;;;21.70;;
11620;SDS011;5866;49.094;11.900;2023-02-15T00:41:46;295.50;;;22.23;;
11620;SDS011;5866;49.094;11.900;2023-02-15T00:44:14;152.03;;;16.47;;
11620;SDS011;5866;49.094;11.900;2023-02-15T00:46:42;311.37;;;25.17;;
11620;SDS011;5866;49.094;11.900;2023-02-15T00:49:11;250.73;;;21.83;;
11620;SDS011;5866;49.094;11.900;2023-02-15T00:51:38;147.37;;;15.43;;
11620;SDS011;5866;49.094;11.900;2023-02-15T00:54:06;131.47;;;18.27;;
11620;SDS011;5866;49.094;11.900;2023-02-15T00:56:34;133.00;;;16.67;;
11620;SDS011;5866;49.094;11.900;2023-02-15T00:59:02;177.80;;;19.20;;
11620;SDS011;5866;49.094;11.900;2023-02-15T01:01:29;147.57;;;18.40;;
11620;SDS011;5866;49.094;11.900;2023-02-15T01:03:57;154.67;;;16.93;;
11620;SDS011;5866;49.094;11.900;2023-02-15T01:06:26;101.20;;;14.30;;
11620;SDS011;5866;49.094;11.900;2023-02-15T01:08:53;173.73;;;20.50;;
11620;SDS011;5866;49.094;11.900;2023-02-15T01:11:21;217.27;;;18.40;;
11620;SDS011;5866;49.094;11.900;2023-02-15T01:13:51;172.10;;;14.87;;
11620;SDS011;5866;49.094;11.900;2023-02-15T01:16:20;174.87;;;17.43;;
11620;SDS011;5866;49.094;11.900;2023-02-15T01:18:49;183.70;;;21.90;;
11620;SDS011;5866;49.094;11.900;2023-02-15T01:21:17;318.20;;;29.80;;
11620;SDS011;5866;49.094;11.900;2023-02-15T01:23:47;251.50;;;21.63;;
11620;SDS011;5866;49.094;11.900;2023-02-15T01:26:15;182.63;;;19.60;;
11620;SDS011;5866;49.094;11.900;2023-02-15T01:28:43;326.67;;;26.80;;
11620;SDS011;5866;49.094;11.900;2023-02-15T01:31:14;270.40;;;22.00;;
11620;SDS011;5866;49.094;11.900;2023-02-15T01:33:43;214.37;;;21.10;;
11620;SDS011;5866;49.094;11.900;2023-02-15T01:36:10;256.20;;;19.87;;
11620;SDS011;5866;49.094;11.900;2023-02-15T01:38:38;199.37;;;20.07;;
11620;SDS011;5866;49.094;11.900;2023-02-15T01:41:09;286.53;;;24.23;;
11620;SDS011;5866;49.094;11.900;2023-02-15T01:43:51;191.27;;;22.33;;
11620;SDS011;5866;49.094;11.900;2023-02-15T01:46:22;303.07;;;22.93;;
11620;SDS011;5866;49.094;11.900;2023-02-15T01:48:54;147.07;;;19.63;;
11620;SDS011;5866;49.094;11.900;2023-02-15T01:51:26;140.33;;;17.63;;
11620;SDS011;5866;49.094;11.900;2023-02-15T01:53:57;190.03;;;16.30;;
11620;SDS011;5866;49.094;11.900;2023-02-15T01:56:31;191.90;;;23.33;;
11620;SDS011;5866;49.094;11.900;2023-02-15T01:59:03;125.53;;;16.80;;
11620;SDS011;5866;49.094;11.900;2023-02-15T02:01:34;165.50;;;20.10;;
11620;SDS011;5866;49.094;11.900;2023-02-15T02:04:05;138.23;;;20.80;;
11620;SDS011;5866;49.094;11.900;2023-02-15T02:06:39;147.23;;;17.30;;
11620;SDS011;5866;49.094;11.900;2023-02-15T02:09:06;162.10;;;14.73;;
11620;SDS011;5866;49.094;11.900;2023-02-15T02:11:36;125.97;;;19.27;;
11620;SDS011;5866;49.094;11.900;2023-02-15T02:14:05;198.03;;;20.40;;
11620;SDS011;5866;49.094;11.900;2023-02-15T02:16:35;208.80;;;19.83;;
11620;SDS011;5866;49.094;11.900;2023-02-15T02:22:27;136.73;;;20.23;;
11620;SDS011;5866;49.094;11.900;2023-02-15T02:25:19;88.60;;;14.03;;
11620;SDS011;5866;49.094;11.900;2023-02-15T02:28:05;167.90;;;21.80;;
11620;SDS011;5866;49.094;11.900;2023-02-15T02:30:49;175.03;;;18.00;;
11620;SDS011;5866;49.094;11.900;2023-02-15T02:33:31;184.03;;;18.53;;
11620;SDS011;5866;49.094;11.900;2023-02-15T02:36:20;226.00;;;21.17;;
11620;SDS011;5866;49.094;11.900;2023-02-15T02:39:00;172.80;;;19.67;;
11620;SDS011;5866;49.094;11.900;2023-02-15T02:41:37;188.80;;;16.63;;
11620;SDS011;5866;49.094;11.900;2023-02-15T02:44:13;241.33;;;22.60;;
11620;SDS011;5866;49.094;11.900;2023-02-15T02:46:47;154.30;;;16.13;;
11620;SDS011;5866;49.094;11.900;2023-02-15T02:49:29;197.83;;;22.93;;
11620;SDS011;5866;49.094;11.900;2023-02-15T02:51:58;173.80;;;15.67;;
11620;SDS011;5866;49.094;11.900;2023-02-15T02:54:26;160.07;;;15.70;;
11620;SDS011;5866;49.094;11.900;2023-02-15T02:56:55;168.63;;;16.80;;
11620;SDS011;5866;49.094;11.900;2023-02-15T02:59:27;147.37;;;18.73;;
11620;SDS011;5866;49.094;11.900;2023-02-15T03:02:00;96.93;;;16.03;;
11620;SDS011;5866;49.094;11.900;2023-02-15T03:04:35;104.17;;;14.87;;
11620;SDS011;5866;49.094;11.900;2023-02-15T03:07:07;144.07;;;14.97;;
11620;SDS011;5866;49.094;11.900;2023-02-15T03:09:38;153.53;;;15.90;;
11620;SDS011;5866;49.094;11.900;2023-02-15T03:12:08;109.57;;;16.33;;
11620;SDS011;5866;49.094;11.900;2023-02-15T03:14:40;120.83;;;18.00;;
11620;SDS011;5866;49.094;11.900;2023-02-15T03:17:10;187.07;;;18.57;;
11620;SDS011;5866;49.094;11.900;2023-02-15T03:19:41;187.87;;;17.47;;
11620;SDS011;5866;49.094;11.900;2023-02-15T03:22:12;235.73;;;22.37;;
11620;SDS011;5866;49.094;11.900;2023-02-15T03:24:47;213.93;;;24.03;;
11620;SDS011;5866;49.094;11.900;2023-02-15T03:27:19;193.67;;;19.63;;
11620;SDS011;5866;49.094;11.900;2023-02-15T03:29:50;162.97;;;15.37;;
11620;SDS011;5866;49.094;11.900;2023-02-15T03:32:22;136.67;;;16.03;;
11620;SDS011;5866;49.094;11.900;2023-02-15T03:34:53;172.47;;;15.77;;
11620;SDS011;5866;49.094;11.900;2023-02-15T03:37:23;225.33;;;20.70;;
11620;SDS011;5866;49.094;11.900;2023-02-15T03:39:57;123.43;;;16.33;;
11620;SDS011;5866;49.094;11.900;2023-02-15T03:42:53;107.57;;;14.43;;
11620;SDS011;5866;49.094;11.900;2023-02-15T03:45:27;225.17;;;17.10;;
11620;SDS011;5866;49.094;11.900;2023-02-15T03:47:57;113.27;;;13.33;;
11620;SDS011;5866;49.094;11.900;2023-02-15T03:50:29;57.73;;;12.37;;
11620;SDS011;5866;49.094;11.900;2023-02-15T03:53:17;147.97;;;17.17;;
11620;SDS011;5866;49.094;11.900;2023-02-15T03:55:47;122.10;;;13.47;;
11620;SDS011;5866;49.094;11.900;2023-02-15T03:58:15;154.73;;;14.80;;
11620;SDS011;5866;49.094;11.900;2023-02-15T04:01:03;155.17;;;16.50;;
11620;SDS011;5866;49.094;11.900;2023-02-15T04:04:01;135.03;;;13.67;;
11620;SDS011;5866;49.094;11.900;2023-02-15T04:06:34;170.50;;;17.60;;
11620;SDS011;5866;49.094;11.900;2023-02-15T04:09:01;167.57;;;18.00;;
11620;SDS011;5866;49.094;11.900;2023-02-15T04:11:46;164.60;;;16.17;;
11620;SDS011;5866;49.094;11.900;2023-02-15T04:14:14;200.80;;;20.23;;
11620;SDS011;5866;49.094;11.900;2023-02-15T04:16:59;132.27;;;15.90;;
11620;SDS011;5866;49.094;11.900;2023-02-15T04:19:26;185.37;;;18.63;;
11620;SDS011;5866;49.094;11.900;2023-02-15T04:22:13;177.97;;;18.90;;
11620;SDS011;5866;49.094;11.900;2023-02-15T04:24:57;137.70;;;14.13;;
11620;SDS011;5866;49.094;11.900;2023-02-15T04:27:38;154.07;;;16.60;;
11620;SDS011;5866;49.094;11.900;2023-02-15T04:30:07;117.87;;;13.37;;
11620;SDS011;5866;49.094;11.900;2023-02-15T04:32:35;155.17;;;20.43;;
11620;SDS011;5866;49.094;11.900;2023-02-15T04:35:04;123.40;;;15.50;;
11620;SDS011;5866;49.094;11.900;2023-02-15T04:37:34;127.67;;;15.30;;
11620;SDS011;5866;49.094;11.900;2023-02-15T04:40:02;153.90;;;17.30;;
11620;SDS011;5866;49.094;11.900;2023-02-15T04:42:30;135.60;;;14.83;;
11620;SDS011;5866;49.094;11.900;2023-02-15T04:44:58;128.23;;;15.83;;
11620;SDS011;5866;49.094;11.900;2023-02-15T04:47:25;108.47;;;13.57;;
11620;SDS011;5866;49.094;11.900;2023-02-15T04:49:53;135.73;;;16.20;;
11620;SDS011;5866;49.094;11.900;2023-02-15T04:52:23;168.27;;;17.87;;
11620;SDS011;5866;49.094;11.900;2023-02-15T04:54:52;135.13;;;15.80;;
11620;SDS011;5866;49.094;11.900;2023-02-15T04:57:19;128.93;;;15.37;;
11620;SDS011;5866;49.094;11.900;2023-02-15T04:59:47;102.67;;;13.30;;
11620;SDS011;5866;49.094;11.900;2023-02-15T05:02:14;84.53;;;12.90;;
11620;SDS011;5866;49.094;11.900;2023-02-15T05:04:42;147.70;;;14.80;;
11620;SDS011;5866;49.094;11.900;2023-02-15T05:07:09;187.57;;;18.07;;
11620;SDS011;5866;49.094;11.900;2023-02-15T05:09:37;159.43;;;14.67;;
11620;SDS011;5866;49.094;11.900;2023-02-15T05:12:06;128.37;;;17.03;;
11620;SDS011;5866;49.094;11.900;2023-02-15T05:14:33;180.40;;;16.67;;
11620;SDS011;5866;49.094;11.900;2023-02-15T05:17:01;147.07;;;16.50;;
11620;SDS011;5866;49.094;11.900;2023-02-15T05:19:29;161.93;;;15.27;;
11620;SDS011;5866;49.094;11.900;2023-02-15T05:21:56;121.97;;;15.80;;
11620;SDS011;5866;49.094;11.900;2023-02-15T05:24:24;165.43;;;19.47;;
11620;SDS011;5866;49.094;11.900;2023-02-15T05:27:11;155.97;;;17.60;;
11620;SDS011;5866;49.094;11.900;2023-02-15T05:29:57;110.73;;;15.60;;
11620;SDS011;5866;49.094;11.900;2023-02-15T05:32:24;113.83;;;15.60;;
11620;SDS011;5866;49.094;11.900;2023-02-15T05:34:52;245.47;;;22.33;;
11620;SDS011;5866;49.094;11.900;2023-02-15T05:37:20;145.20;;;15.87;;
11620;SDS011;5866;49.094;11.900;2023-02-15T05:39:47;163.80;;;17.07;;
11620;SDS011;5866;49.094;11.900;2023-02-15T05:42:16;203.37;;;19.23;;
11620;SDS011;5866;49.094;11.900;2023-02-15T05:44:44;151.53;;;16.03;;
11620;SDS011;5866;49.094;11.900;2023-02-15T05:47:11;162.77;;;18.93;;
11620;SDS011;5866;49.094;11.900;2023-02-15T05:49:38;166.33;;;22.63;;
11620;SDS011;5866;49.094;11.900;2023-02-15T05:52:06;133.63;;;17.10;;
11620;SDS011;5866;49.094;11.900;2023-02-15T05:54:34;131.20;;;17.47;;
11620;SDS011;5866;49.094;11.900;2023-02-15T05:57:01;94.30;;;15.73;;
11620;SDS011;5866;49.094;11.900;2023-02-15T05:59:30;133.30;;;21.47;;
11620;SDS011;5866;49.094;11.900;2023-02-15T06:01:58;93.37;;;16.63;;
11620;SDS011;5866;49.094;11.900;2023-02-15T06:04:25;108.70;;;16.03;;
11620;SDS011;5866;49.094;11.900;2023-02-15T06:06:53;104.57;;;14.87;;
11620;SDS011;5866;49.094;11.900;2023-02-15T06:09:21;129.57;;;19.53;;
11620;SDS011;5866;49.094;11.900;2023-02-15T06:11:48;158.63;;;18.83;;
11620;SDS011;5866;49.094;11.900;2023-02-15T06:14:16;116.97;;;17.20;;
11620;SDS011;5866;49.094;11.900;2023-02-15T06:16:44;99.20;;;17.67;;
11620;SDS011;5866;49.094;11.900;2023-02-15T06:19:12;160.70;;;20.87;;
11620;SDS011;5866;49.094;11.900;2023-02-15T06:21:39;130.70;;;16.10;;
11620;SDS011;5866;49.094;11.900;2023-02-15T06:24:07;84.83;;;17.60;;
11620;SDS011;5866;49.094;11.900;2023-02-15T06:26:35;102.23;;;15.03;;
11620;SDS011;5866;49.094;11.900;2023-02-15T06:29:02;169.27;;;20.40;;
11620;SDS011;5866;49.094;11.900;2023-02-15T06:31:30;120.70;;;17.37;;
11620;SDS011;5866;49.094;11.900;2023-02-15T06:33:59;103.13;;;18.67;;
11620;SDS011;5866;49.094;11.900;2023-02-15T06:36:27;101.80;;;20.37;;
11620;SDS011;5866;49.094;11.900;2023-02-15T06:38:55;146.53;;;16.53;;
11620;SDS011;5866;49.094;11.900;2023-02-15T06:41:23;156.33;;;18.73;;
11620;SDS011;5866;49.094;11.900;2023-02-15T06:43:50;147.90;;;22.97;;
11620;SDS011;5866;49.094;11.900;2023-02-15T06:46:18;172.93;;;21.43;;
11620;SDS011;5866;49.094;11.900;2023-02-15T06:48:46;139.87;;;21.50;;
11620;SDS011;5866;49.094;11.900;2023-02-15T06:51:15;149.67;;;19.97;;
11620;SDS011;5866;49.094;11.900;2023-02-15T06:53:42;187.43;;;27.03;;
11620;SDS011;5866;49.094;11.900;2023-02-15T06:56:10;166.67;;;18.63;;
11620;SDS011;5866;49.094;11.900;2023-02-15T06:58:38;195.07;;;21.10;;
11620;SDS011;5866;49.094;11.900;2023-02-15T07:01:07;238.77;;;20.40;;
11620;SDS011;5866;49.094;11.900;2023-02-15T07:03:35;242.90;;;20.20;;
11620;SDS011;5866;49.094;11.900;2023-02-15T07:06:03;156.33;;;17.60;;
11620;SDS011;5866;49.094;11.900;2023-02-15T07:08:36;131.70;;;14.23;;
11620;SDS011;5866;49.094;11.900;2023-02-15T07:11:03;232.73;;;27.93;;
11620;SDS011;5866;49.094;11.900;2023-02-15T07:13:49;242.63;;;24.53;;
11620;SDS011;5866;49.094;11.900;2023-02-15T07:16:18;169.20;;;17.63;;
11620;SDS011;5866;49.094;11.900;2023-02-15T07:18:46;225.40;;;18.70;;
11620;SDS011;5866;49.094;11.900;2023-02-15T07:21:13;220.53;;;19.40;;
11620;SDS011;5866;49.094;11.900;2023-02-15T07:23:42;220.43;;;23.10;;
11620;SDS011;5866;49.094;11.900;2023-02-15T07:26:10;164.03;;;15.60;;
11620;SDS011;5866;49.094;11.900;2023-02-15T07:28:38;81.87;;;14.97;;
11620;SDS011;5866;49.094;11.900;2023-02-15T07:31:05;185.87;;;20.50;;
11620;SDS011;5866;49.094;11.900;2023-02-15T07:33:33;220.53;;;27.23;;
11620;SDS011;5866;49.094;11.900;2023-02-15T07:36:01;190.63;;;20.30;;
11620;SDS011;5866;49.094;11.900;2023-02-15T07:38:31;172.03;;;18.90;;
11620;SDS011;5866;49.094;11.900;2023-02-15T07:41:02;181.93;;;19.20;;
11620;SDS011;5866;49.094;11.900;2023-02-15T07:43:32;170.50;;;21.07;;
11620;SDS011;5866;49.094;11.900;2023-02-15T07:46:00;131.73;;;13.60;;
11620;SDS011;5866;49.094;11.900;2023-02-15T07:48:29;158.40;;;18.87;;
11620;SDS011;5866;49.094;11.900;2023-02-15T07:50:58;104.83;;;15.60;;
11620;SDS011;5866;49.094;11.900;2023-02-15T07:53:26;189.00;;;17.80;;
11620;SDS011;5866;49.094;11.900;2023-02-15T07:55:53;124.20;;;16.57;;
11620;SDS011;5866;49.094;11.900;2023-02-15T07:58:23;250.90;;;22.20;;
11620;SDS011;5866;49.094;11.900;2023-02-15T08:01:11;113.37;;;15.83;;
11620;SDS011;5866;49.094;11.900;2023-02-15T08:03:38;205.73;;;21.77;;
11620;SDS011;5866;49.094;11.900;2023-02-15T08:06:06;142.43;;;16.60;;
11620;SDS011;5866;49.094;11.900;2023-02-15T08:08:34;99.43;;;14.17;;
11620;SDS011;5866;49.094;11.900;2023-02-15T08:11:02;240.03;;;19.73;;
11620;SDS011;5866;49.094;11.900;2023-02-15T08:13:51;141.00;;;17.37;;
11620;SDS011;5866;49.094;11.900;2023-02-15T08:16:26;176.43;;;17.70;;
11620;SDS011;5866;49.094;11.900;2023-02-15T08:18:56;111.03;;;13.27;;
11620;SDS011;5866;49.094;11.900;2023-02-15T08:21:25;136.20;;;16.40;;
11620;SDS011;5866;49.094;11.900;2023-02-15T08:23:54;131.97;;;15.60;;
11620;SDS011;5866;49.094;11.900;2023-02-15T08:26:22;245.43;;;30.40;;
11620;SDS011;5866;49.094;11.900;2023-02-15T08:28:52;133.77;;;13.27;;
11620;SDS011;5866;49.094;11.900;2023-02-15T08:31:20;158.90;;;17.90;;
11620;SDS011;5866;49.094;11.900;2023-02-15T08:33:48;124.27;;;19.33;;
11620;SDS011;5866;49.094;11.900;2023-02-15T08:36:18;115.03;;;17.00;;
11620;SDS011;5866;49.094;11.900;2023-02-15T08:38:47;151.30;;;18.67;;
11620;SDS011;5866;49.094;11.900;2023-02-15T08:41:16;92.40;;;16.87;;
11620;SDS011;5866;49.094;11.900;2023-02-15T08:43:46;148.03;;;33.07;;
11620;SDS011;5866;49.094;11.900;2023-02-15T08:46:18;135.80;;;20.03;;
11620;SDS011;5866;49.094;11.900;2023-02-15T08:48:48;184.70;;;21.40;;
11620;SDS011;5866;49.094;11.900;2023-02-15T08:51:16;144.23;;;23.40;;
11620;SDS011;5866;49.094;11.900;2023-02-15T08:53:46;150.83;;;22.37;;
11620;SDS011;5866;49.094;11.900;2023-02-15T08:56:15;71.53;;;22.67;;
11620;SDS011;5866;49.094;11.900;2023-02-15T08:58:43;133.27;;;25.90;;
11620;SDS011;5866;49.094;11.900;2023-02-15T09:01:12;90.87;;;15.20;;
11620;SDS011;5866;49.094;11.900;2023-02-15T09:03:45;175.40;;;26.03;;
11620;SDS011;5866;49.094;11.900;2023-02-15T09:06:14;130.40;;;19.67;;
11620;SDS011;5866;49.094;11.900;2023-02-15T09:08:42;101.20;;;17.80;;
11620;SDS011;5866;49.094;11.900;2023-02-15T09:11:10;134.40;;;23.83;;
11620;SDS011;5866;49.094;11.900;2023-02-15T09:13:39;197.13;;;73.00;;
11620;SDS011;5866;49.094;11.900;2023-02-15T09:16:07;132.50;;;18.80;;
11620;SDS011;5866;49.094;11.900;2023-02-15T09:18:37;114.97;;;25.47;;
11620;SDS011;5866;49.094;11.900;2023-02-15T09:21:08;85.43;;;17.00;;
11620;SDS011;5866;49.094;11.900;2023-02-15T09:23:39;92.00;;;20.43;;
11620;SDS011;5866;49.094;11.900;2023-02-15T09:26:08;119.87;;;19.93;;
11620;SDS011;5866;49.094;11.900;2023-02-15T09:28:37;210.83;;;29.70;;
11620;SDS011;5866;49.094;11.900;2023-02-15T09:31:06;109.07;;;32.07;;
11620;SDS011;5866;49.094;11.900;2023-02-15T09:33:35;138.00;;;20.33;;
11620;SDS011;5866;49.094;11.900;2023-02-15T09:36:03;149.80;;;21.60;;
11620;SDS011;5866;49.094;11.900;2023-02-15T09:38:32;110.53;;;18.13;;
11620;SDS011;5866;49.094;11.900;2023-02-15T09:41:06;113.83;;;21.33;;
11620;SDS011;5866;49.094;11.900;2023-02-15T09:43:47;65.20;;;15.67;;
11620;SDS011;5866;49.094;11.900;2023-02-15T09:46:30;148.63;;;23.70;;
11620;SDS011;5866;49.094;11.900;2023-02-15T09:49:16;88.87;;;18.00;;
11620;SDS011;5866;49.094;11.900;2023-02-15T09:52:01;206.83;;;21.17;;
11620;SDS011;5866;49.094;11.900;2023-02-15T09:54:47;140.63;;;21.70;;
11620;SDS011;5866;49.094;11.900;2023-02-15T09:57:27;96.47;;;16.67;;
11620;SDS011;5866;49.094;11.900;2023-02-15T10:00:05;74.37;;;17.93;;
11620;SDS011;5866;49.094;11.900;2023-02-15T10:02:44;99.53;;;21.00;;
11620;SDS011;5866;49.094;11.900;2023-02-15T10:05:29;81.90;;;18.47;;
11620;SDS011;5866;49.094;11.900;2023-02-15T10:08:11;72.73;;;18.37;;
11620;SDS011;5866;49.094;11.900;2023-02-15T10:10:53;87.63;;;20.47;;
11620;SDS011;5866;49.094;11.900;2023-02-15T10:13:52;88.53;;;21.10;;
11620;SDS011;5866;49.094;11.900;2023-02-15T10:16:32;74.50;;;21.27;;
11620;SDS011;5866;49.094;11.900;2023-02-15T10:19:14;88.20;;;20.20;;
11620;SDS011;5866;49.094;11.900;2023-02-15T10:21:55;74.93;;;19.47;;
11620;SDS011;5866;49.094;11.900;2023-02-15T10:24:36;92.60;;;20.60;;
11620;SDS011;5866;49.094;11.900;2023-02-15T10:27:18;44.53;;;16.67;;
11620;SDS011;5866;49.094;11.900;2023-02-15T10:29:49;72.63;;;22.03;;
11620;SDS011;5866;49.094;11.900;2023-02-15T10:32:28;36.27;;;18.23;;
11620;SDS011;5866;49.094;11.900;2023-02-15T10:35:03;41.83;;;20.13;;
11620;SDS011;5866;49.094;11.900;2023-02-15T10:37:47;43.07;;;20.50;;
11620;SDS011;5866;49.094;11.900;2023-02-15T10:40:26;51.60;;;20.47;;
11620;SDS011;5866;49.094;11.900;2023-02-15T10:43:11;44.13;;;22.67;;
11620;SDS011;5866;49.094;11.900;2023-02-15T10:45:51;37.00;;;21.17;;
11620;SDS011;5866;49.094;11.900;2023-02-15T10:48:29;35.37;;;19.20;;
11620;SDS011;5866;49.094;11.900;2023-02-15T10:51:11;36.27;;;20.47;;
11620;SDS011;5866;49.094;11.900;2023-02-15T10:53:48;49.90;;;18.77;;
11620;SDS011;5866;49.094;11.900;2023-02-15T10:56:29;68.00;;;20.53;;
11620;SDS011;5866;49.094;11.900;2023-02-15T10:59:22;52.03;;;21.03;;
11620;SDS011;5866;49.094;11.900;2023-02-15T11:02:01;73.60;;;21.73;;
11620;SDS011;5866;49.094;11.900;2023-02-15T11:04:43;42.63;;;20.23;;
11620;SDS011;5866;49.094;11.900;2023-02-15T11:07:16;50.93;;;19.67;;
11620;SDS011;5866;49.094;11.900;2023-02-15T11:09:48;62.07;;;20.97;;
11620;SDS011;5866;49.094;11.900;2023-02-15T11:12:20;49.53;;;20.37;;
11620;SDS011;5866;49.094;11.900;2023-02-15T11:14:54;42.43;;;18.00;;
11620;SDS011;5866;49.094;11.900;2023-02-15T11:17:25;46.00;;;19.87;;
11620;SDS011;5866;49.094;11.900;2023-02-15T11:19:59;43.03;;;18.23;;
11620;SDS011;5866;49.094;11.900;2023-02-15T11:22:31;61.47;;;53.80;;
11620;SDS011;5866;49.094;11.900;2023-02-15T11:25:01;95.63;;;87.07;;
11620;SDS011;5866;49.094;11.900;2023-02-15T11:27:41;87.77;;;80.23;;
11620;SDS011;5866;49.094;11.900;2023-02-15T11:30:15;110.13;;;101.77;;
11620;SDS011;5866;49.094;11.900;2023-02-15T11:32:47;96.97;;;89.50;;
11620;SDS011;5866;49.094;11.900;2023-02-15T11:35:20;86.30;;;80.03;;
11620;SDS011;5866;49.094;11.900;2023-02-15T11:37:53;44.57;;;40.07;;
11620;SDS011;5866;49.094;11.900;2023-02-15T11:40:25;40.03;;;34.83;;
11620;SDS011;5866;49.094;11.900;2023-02-15T11:42:58;77.97;;;71.17;;
11620;SDS011;5866;49.094;11.900;2023-02-15T11:45:32;84.73;;;76.60;;
11620;SDS011;5866;49.094;11.900;2023-02-15T11:48:01;78.13;;;66.47;;
11620;SDS011;5866;49.094;11.900;2023-02-15T11:50:36;103.00;;;95.90;;
11620;SDS011;5866;49.094;11.900;2023-02-15T11:53:10;82.10;;;75.70;;
11620;SDS011;5866;49.094;11.900;2023-02-15T11:55:41;110.33;;;102.97;;
11620;SDS011;5866;49.094;11.900;2023-02-15T11:58:12;53.20;;;48.73;;
11620;SDS011;5866;49.094;11.900;2023-02-15T12:00:50;34.60;;;27.20;;
11620;SDS011;5866;49.094;11.900;2023-02-15T12:03:24;83.73;;;77.50;;
11620;SDS011;5866;49.094;11.900;2023-02-15T12:05:57;67.77;;;62.37;;
11620;SDS011;5866;49.094;11.900;2023-02-15T12:08:30;67.63;;;62.10;;
11620;SDS011;5866;49.094;11.900;2023-02-15T12:11:06;73.07;;;66.47;;
11620;SDS011;5866;49.094;11.900;2023-02-15T12:13:44;86.00;;;79.13;;
11620;SDS011;5866;49.094;11.900;2023-02-15T12:16:23;76.63;;;70.03;;
11620;SDS011;5866;49.094;11.900;2023-02-15T12:18:53;55.43;;;45.23;;
11620;SDS011;5866;49.094;11.900;2023-02-15T12:21:25;74.80;;;67.97;;
11620;SDS011;5866;49.094;11.900;2023-02-15T12:23:56;89.40;;;81.60;;
11620;SDS011;5866;49.094;11.900;2023-02-15T12:26:28;64.57;;;46.93;;
11620;SDS011;5866;49.094;11.900;2023-02-15T12:28:57;62.47;;;54.77;;
11620;SDS011;5866;49.094;11.900;2023-02-15T12:31:30;67.97;;;61.23;;
11620;SDS011;5866;49.094;11.900;2023-02-15T12:34:03;35.57;;;28.37;;
11620;SDS011;5866;49.094;11.900;2023-02-15T12:36:40;44.13;;;30.30;;
11620;SDS011;5866;49.094;11.900;2023-02-15T12:39:16;47.90;;;19.40;;
11620;SDS011;5866;49.094;11.900;2023-02-15T12:41:56;87.93;;;27.13;;
11620;SDS011;5866;49.094;11.900;2023-02-15T12:44:26;39.50;;;25.10;;
11620;SDS011;5866;49.094;11.900;2023-02-15T12:46:57;36.30;;;18.67;;
11620;SDS011;5866;49.094;11.900;2023-02-15T12:49:27;46.93;;;34.83;;
11620;SDS011;5866;49.094;11.900;2023-02-15T12:51:55;55.23;;;49.70;;
11620;SDS011;5866;49.094;11.900;2023-02-15T12:54:34;61.50;;;56.20;;
11620;SDS011;5866;49.094;11.900;2023-02-15T12:57:15;54.27;;;49.23;;
11620;SDS011;5866;49.094;11.900;2023-02-15T12:59:49;76.47;;;68.73;;
11620;SDS011;5866;49.094;11.900;2023-02-15T13:02:21;55.13;;;49.73;;
11620;SDS011;5866;49.094;11.900;2023-02-15T13:04:52;40.47;;;34.50;;
11620;SDS011;5866;49.094;11.900;2023-02-15T13:07:23;37.87;;;23.30;;
11620;SDS011;5866;49.094;11.900;2023-02-15T13:09:52;28.37;;;23.63;;
11620;SDS011;5866;49.094;11.900;2023-02-15T13:12:21;25.37;;;17.47;;
11620;SDS011;5866;49.094;11.900;2023-02-15T13:14:52;26.90;;;19.70;;
11620;SDS011;5866;49.094;11.900;2023-02-15T13:17:25;26.80;;;17.97;;
11620;SDS011;5866;49.094;11.900;2023-02-15T13:19:56;37.60;;;18.70;;
11620;SDS011;5866;49.094;11.900;2023-02-15T13:22:27;40.47;;;23.20;;
11620;SDS011;5866;49.094;11.900;2023-02-15T13:25:01;35.70;;;17.10;;
11620;SDS011;5866;49.094;11.900;2023-02-15T13:27:40;43.63;;;27.67;;
11620;SDS011;5866;49.094;11.900;2023-02-15T13:32:56;43.23;;;36.20;;
11620;SDS011;5866;49.094;11.900;2023-02-15T13:35:27;31.17;;;27.33;;
11620;SDS011;5866;49.094;11.900;2023-02-15T13:38:14;28.63;;;25.80;;
11620;SDS011;5866;49.094;11.900;2023-02-15T13:40:48;35.67;;;32.30;;
11620;SDS011;5866;49.094;11.900;2023-02-15T13:43:24;47.93;;;43.53;;
11620;SDS011;5866;49.094;11.900;2023-02-15T13:46:04;62.70;;;57.73;;
11620;SDS011;5866;49.094;11.900;2023-02-15T13:48:47;96.70;;;89.90;;
11620;SDS011;5866;49.094;11.900;2023-02-15T13:51:25;79.30;;;73.30;;
11620;SDS011;5866;49.094;11.900;2023-02-15T13:54:16;50.37;;;46.23;;
11620;SDS011;5866;49.094;11.900;2023-02-15T13:57:10;56.00;;;51.00;;
11620;SDS011;5866;49.094;11.900;2023-02-15T13:59:53;46.03;;;41.33;;
11620;SDS011;5866;49.094;11.900;2023-02-15T14:02:34;65.67;;;59.73;;
11620;SDS011;5866;49.094;11.900;2023-02-15T14:05:29;69.87;;;63.77;;
11620;SDS011;5866;49.094;11.900;2023-02-15T14:08:10;48.43;;;43.13;;
11620;SDS011;5866;49.094;11.900;2023-02-15T14:10:43;33.57;;;26.27;;
11620;SDS011;5866;49.094;11.900;2023-02-15T14:16:33;35.77;;;19.30;;
11620;SDS011;5866;49.094;11.900;2023-02-15T14:19:11;35.50;;;18.97;;
11620;SDS011;5866;49.094;11.900;2023-02-15T14:21:48;36.13;;;20.47;;
11620;SDS011;5866;49.094;11.900;2023-02-15T14:24:26;27.80;;;16.60;;
11620;SDS011;5866;49.094;11.900;2023-02-15T14:27:04;31.13;;;18.23;;
11620;SDS011;5866;49.094;11.900;2023-02-15T14:29:45;44.87;;;24.83;;
11620;SDS011;5866;49.094;11.900;2023-02-15T14:32:18;29.43;;;17.07;;
11620;SDS011;5866;49.094;11.900;2023-02-15T14:34:53;29.40;;;16.23;;
11620;SDS011;5866;49.094;11.900;2023-02-15T14:37:29;38.97;;;21.03;;
11620;SDS011;5866;49.094;11.900;2023-02-15T14:40:08;31.07;;;27.70;;
11620;SDS011;5866;49.094;11.900;2023-02-15T14:43:01;29.57;;;21.30;;
11620;SDS011;5866;49.094;11.900;2023-02-15T14:45:39;34.20;;;24.50;;
11620;SDS011;5866;49.094;11.900;2023-02-15T14:48:24;32.43;;;26.40;;
11620;SDS011;5866;49.094;11.900;2023-02-15T14:50:56;58.47;;;52.63;;
11620;SDS011;5866;49.094;11.900;2023-02-15T14:53:33;29.93;;;22.57;;
11620;SDS011;5866;49.094;11.900;2023-02-15T14:56:16;42.73;;;33.60;;